Time;durP1;ratioP1;P1;durP2;ratioP2;P2;SDS_P1;SDS_P2;PMS_P1;PMS_P2;Temp;Humidity;BMP_temperature;BMP_pressure;BME280_temperature;BME280_humidity;BME280_pressure;Samples;Min_cycle;Max_cycle;Signal;HPM_P1;HPM_P2
2022/06/22 00:00:04;;;;;;;1.63;1.25;;;20.80;40.90;;;18.60;43.84;100944.72;12242455;19;20010;-80
2022/06/22 00:04:29;;;;;;;0.95;0.85;;;20.40;40.80;;;18.45;44.00;100923.91;12244841;19;20014;-79
2022/06/22 00:08:37;;;;;;;1.23;1.08;;;20.40;40.90;;;18.42;43.82;100924.16;12240995;19;20484;-80
2022/06/22 00:12:39;;;;;;;2.15;1.00;;;20.30;41.00;;;18.43;43.62;100946.16;12242169;19;20022;-79
2022/06/22 00:16:51;;;;;;;1.73;1.20;;;20.30;40.90;;;18.39;44.26;100934.16;12240298;19;20011;-79
2022/06/22 00:20:59;;;;;;;1.35;1.23;;;20.20;41.10;;;18.31;44.13;100942.75;12239970;19;20486;-80
2022/06/22 00:25:19;;;;;;;1.05;0.95;;;20.10;41.00;;;18.32;44.08;100957.66;12240036;19;20014;-79
2022/06/22 00:29:33;;;;;;;1.27;1.10;;;20.10;41.30;;;18.00;44.16;100912.75;12241461;19;20348;-80
2022/06/22 00:33:36;;;;;;;2.50;0.80;;;20.10;41.30;;;18.08;44.32;100940.22;12240514;19;20011;-80
2022/06/22 00:37:37;;;;;;;2.15;1.10;;;20.30;41.60;;;17.99;44.23;100919.84;12241635;19;20025;-79
2022/06/22 00:41:40;;;;;;;1.48;1.00;;;20.00;41.60;;;18.09;44.47;100952.50;12237838;19;20014;-80
2022/06/22 00:45:43;;;;;;;1.25;1.10;;;20.20;41.60;;;18.01;44.41;100947.00;12240372;19;20468;-80
2022/06/22 00:49:45;;;;;;;1.23;1.10;;;19.90;41.70;;;17.94;44.43;100932.59;12239861;19;20053;-80
2022/06/22 00:54:00;;;;;;;1.40;1.30;;;19.80;41.60;;;17.80;44.86;100925.00;12239159;19;20014;-80
2022/06/22 00:58:44;;;;;;;1.58;1.05;;;19.80;41.80;;;17.90;44.89;100958.47;12238933;19;20086;-80
2022/06/22 01:02:52;;;;;;;5.55;1.00;;;19.70;41.90;;;17.82;44.74;100939.75;12237869;19;20024;-80
2022/06/22 01:07:02;;;;;;;1.15;1.05;;;19.70;41.80;;;17.59;44.84;100906.44;12239100;19;20010;-80
2022/06/22 01:16:07;;;;;;;3.78;1.08;;;19.70;42.30;;;17.65;45.08;100929.69;12238365;19;20018;-80
2022/06/22 01:20:51;;;;;;;0.80;0.80;;;19.50;42.10;;;17.52;45.27;100937.75;12231846;19;20342;-79
2022/06/22 01:25:48;;;;;;;1.73;0.93;;;19.50;42.10;;;17.48;45.03;100944.28;12240490;19;20011;-80
2022/06/22 01:29:57;;;;;;;1.10;0.80;;;19.30;42.20;;;17.35;45.23;100938.31;12236858;19;20019;-79
2022/06/22 01:33:58;;;;;;;0.90;0.90;;;19.20;42.00;;;17.09;45.17;100916.63;12240133;19;20011;-80
2022/06/22 01:38:32;;;;;;;2.40;0.88;;;19.40;42.20;;;16.92;45.63;100891.59;12236994;19;20017;-80
2022/06/22 01:42:46;;;;;;;0.73;0.73;;;19.10;42.60;;;16.97;45.80;100921.06;12239469;19;20014;-80
2022/06/22 01:47:09;;;;;;;0.70;0.68;;;19.00;42.40;;;16.97;45.79;100935.09;12235237;19;20377;-80
2022/06/22 01:51:41;;;;;;;1.20;0.75;;;18.90;42.50;;;16.84;45.71;100899.25;12237170;19;20493;-79
2022/06/22 01:56:03;;;;;;;1.23;0.80;;;18.90;42.50;;;16.87;45.60;100913.03;12236202;19;20023;-79
2022/06/22 02:00:12;;;;;;;0.80;0.80;;;18.80;42.60;;;16.84;45.82;100918.56;12224788;19;20496;-80
2022/06/22 02:04:24;;;;;;;1.25;1.00;;;18.70;42.40;;;16.81;46.03;100922.28;12240274;19;20036;-80
2022/06/22 02:08:36;;;;;;;1.77;1.00;;;18.70;42.70;;;16.68;46.09;100899.59;12235384;19;20543;-79
2022/06/22 02:12:46;;;;;;;1.40;0.98;;;18.60;42.70;;;16.72;45.99;100915.06;12245530;19;20011;-80
2022/06/22 02:16:53;;;;;;;0.85;0.82;;;18.60;42.60;;;16.57;46.21;100901.25;12245391;19;20015;-80
2022/06/22 02:21:00;;;;;;;1.00;1.00;;;18.50;42.50;;;16.29;45.96;100862.19;12247617;19;20074;-80
2022/06/22 02:25:02;;;;;;;0.70;0.70;;;18.70;42.70;;;16.49;45.92;100916.00;12250473;19;20476;-80
2022/06/22 02:29:04;;;;;;;0.95;0.82;;;18.40;42.50;;;16.30;46.07;100896.31;12243878;19;20011;-80
2022/06/22 02:33:07;;;;;;;3.03;1.00;;;18.40;42.50;;;16.27;46.31;100907.09;12247637;19;20029;-80
2022/06/22 02:37:10;;;;;;;1.20;0.95;;;18.30;42.60;;;16.08;46.27;100888.38;12245063;19;20482;-80
2022/06/22 02:45:34;;;;;;;0.90;0.57;;;18.40;42.80;;;16.07;46.22;100906.00;12247527;19;20010;-80
2022/06/22 02:50:12;;;;;;;0.73;0.73;;;18.10;42.70;;;15.88;46.53;100892.53;12246700;19;20052;-80
2022/06/22 02:54:35;;;;;;;1.20;1.10;;;17.90;42.80;;;15.76;46.57;100896.91;12244740;19;20018;-80
2022/06/22 02:58:37;;;;;;;1.65;0.90;;;17.90;43.00;;;15.52;46.44;100882.88;12246964;19;20018;-80
2022/06/22 03:02:41;;;;;;;0.63;0.63;;;17.70;42.90;;;15.51;46.57;100895.22;12246322;19;20018;-79
2022/06/22 03:06:52;;;;;;;1.10;1.00;;;17.70;43.00;;;15.42;46.83;100878.31;12245340;19;20428;-80
2022/06/22 03:11:06;;;;;;;1.92;1.10;;;17.60;43.70;;;15.30;46.90;100865.19;12243814;19;20063;-80
2022/06/22 03:15:16;;;;;;;0.80;0.80;;;17.50;43.40;;;15.36;47.24;100896.31;12243656;19;20019;-80
2022/06/22 03:19:36;;;;;;;0.75;0.75;;;17.40;43.50;;;15.23;47.34;100875.34;12243574;19;20048;-80
2022/06/22 03:24:01;;;;;;;1.83;1.33;;;17.30;43.60;;;15.30;47.25;100894.13;12244608;19;20018;-80
2022/06/22 03:28:12;;;;;;;0.70;0.70;;;17.40;43.80;;;15.21;47.25;100871.97;12246549;19;20014;-80
2022/06/22 03:32:48;;;;;;;0.85;0.60;;;17.30;43.60;;;15.19;47.47;100861.53;12242616;19;20015;-80
2022/06/22 03:37:13;;;;;;;1.10;0.90;;;17.20;44.00;;;15.24;47.53;100867.31;12245105;19;20018;-80
2022/06/22 03:41:22;;;;;;;0.90;0.90;;;17.20;44.10;;;15.07;47.44;100843.16;12240487;19;20014;-80
2022/06/22 03:45:32;;;;;;;0.75;0.75;;;17.60;44.20;;;15.14;47.38;100853.13;12245275;19;20014;-80
2022/06/22 03:49:52;;;;;;;0.80;0.80;;;17.20;44.20;;;14.90;47.66;100803.16;12240714;19;20015;-80
2022/06/22 03:54:13;;;;;;;2.53;0.90;;;17.20;44.40;;;15.10;47.89;100835.91;12245659;19;20018;-80
2022/06/22 03:58:16;;;;;;;2.58;1.00;;;17.20;44.60;;;14.87;47.56;100792.84;12228572;19;20014;-80
2022/06/22 04:02:19;;;;;;;1.40;0.80;;;17.20;44.40;;;15.27;47.66;100861.00;12240963;19;20011;-80
2022/06/22 04:06:31;;;;;;;0.80;0.80;;;17.20;44.50;;;15.29;47.89;100858.25;12242347;19;20030;-80
2022/06/22 04:10:51;;;;;;;1.20;1.10;;;17.20;44.80;;;15.23;48.09;100849.03;12235138;19;20003;-80
2022/06/22 04:15:23;;;;;;;0.82;0.80;;;17.30;44.60;;;15.38;48.14;100861.03;12243653;19;20045;-79
2022/06/22 04:19:39;;;;;;;1.80;1.25;;;17.30;45.00;;;15.39;48.27;100868.00;12240140;19;20011;-79
2022/06/22 04:23:51;;;;;;;1.10;1.00;;;17.30;45.10;;;15.22;48.31;100842.06;12242972;19;20006;-79
2022/06/22 04:27:56;;;;;;;1.35;0.95;;;17.30;45.10;;;15.37;48.26;100869.91;12238448;19;20011;-79
2022/06/22 04:32:17;;;;;;;0.73;0.73;;;17.30;45.30;;;15.42;48.42;100872.22;12242878;19;20021;-79
2022/06/22 04:36:55;;;;;;;0.90;0.90;;;17.30;45.50;;;15.35;48.55;100850.75;12230429;19;20027;-79
2022/06/22 04:41:27;;;;;;;5.80;1.10;;;17.50;46.10;;;15.56;48.69;100876.47;12228641;19;20010;-79
2022/06/22 04:45:48;;;;;;;1.35;0.98;;;17.40;46.20;;;15.66;48.52;100877.44;12236367;19;20499;-79
2022/06/22 04:49:57;;;;;;;2.03;1.30;;;17.50;46.10;;;15.67;48.97;100858.06;12221450;19;20014;-79
2022/06/22 04:54:22;;;;;;;1.02;0.80;;;17.60;46.70;;;15.97;49.14;100869.91;12227280;19;20034;-79
2022/06/22 04:58:39;;;;;;;0.90;0.90;;;17.70;47.20;;;16.19;49.07;100877.03;12222311;19;20102;-79
2022/06/22 05:02:43;;;;;;;1.38;0.95;;;17.90;47.30;;;16.22;49.11;100860.97;12227919;19;20027;-79
2022/06/22 05:07:06;;;;;;;2.10;1.10;;;18.00;47.20;;;16.52;49.39;100887.59;12223606;19;20023;-79
2022/06/22 05:11:17;;;;;;;1.00;0.93;;;18.20;47.60;;;16.73;49.37;100895.63;12224578;19;20035;-79
2022/06/22 05:15:26;;;;;;;1.30;1.20;;;18.40;47.50;;;16.72;49.41;100864.97;12225205;19;20409;-80
2022/06/22 05:19:52;;;;;;;1.63;1.00;;;18.80;47.60;;;17.01;49.57;100889.06;12224067;19;20011;-80
2022/06/22 05:23:57;;;;;;;1.50;0.90;;;18.80;47.90;;;17.15;49.43;100892.41;12226917;19;20402;-80
2022/06/22 05:28:38;;;;;;;1.60;0.90;;;18.90;47.60;;;17.33;49.51;100890.91;12223879;19;20497;-79
2022/06/22 05:32:49;;;;;;;2.00;1.30;;;19.10;47.70;;;17.61;49.59;100902.69;12224639;19;20319;-80
2022/06/22 05:37:16;;;;;;;1.52;1.05;;;19.30;47.40;;;17.74;49.40;100880.53;12223325;19;20014;-79
2022/06/22 05:41:27;;;;;;;3.75;1.30;;;19.50;47.20;;;17.92;49.57;100860.56;12221100;19;20577;-80
2022/06/22 05:45:36;;;;;;;1.30;1.20;;;20.10;47.60;;;18.42;49.24;100900.38;12222702;19;20477;-80
2022/06/22 05:50:29;;;;;;;2.42;1.48;;;20.00;47.30;;;19.00;49.25;100916.50;12223176;19;20022;-80
2022/06/22 05:54:44;;;;;;;2.03;1.17;;;20.40;47.50;;;18.99;49.11;100872.50;12218026;19;20010;-79
2022/06/22 05:59:12;;;;;;;4.18;1.30;;;20.70;46.90;;;19.73;48.99;100921.53;12220310;19;20078;-79
2022/06/22 06:03:39;;;;;;;1.48;1.13;;;21.00;47.30;;;20.16;48.61;100914.94;12223863;19;20019;-81
2022/06/22 06:08:00;;;;;;;2.67;1.20;;;21.40;46.30;;;20.32;48.28;100898.44;12226518;19;20019;-79
2022/06/22 06:12:19;;;;;;;1.92;1.30;;;21.80;46.20;;;20.74;48.35;100912.16;12215232;19;20037;-78
2022/06/22 06:16:29;;;;;;;3.58;1.30;;;22.10;45.60;;;21.07;48.02;100920.53;12220719;19;20111;-78
2022/06/22 06:20:40;;;;;;;2.70;1.33;;;22.50;45.50;;;21.39;47.65;100929.88;12216783;19;20010;-79
2022/06/22 06:29:21;;;;;;;3.33;1.45;;;23.10;44.90;;;21.94;47.25;100936.84;12222011;19;20385;-78
2022/06/22 06:33:35;;;;;;;3.65;1.25;;;23.30;44.50;;;22.19;47.29;100937.91;12223429;19;20086;-78
2022/06/22 06:38:31;;;;;;;1.52;1.30;;;23.70;43.90;;;22.49;47.09;100949.91;12231020;19;20078;-79
2022/06/22 06:43:05;;;;;;;2.67;1.40;;;23.80;43.70;;;22.62;46.57;100917.56;12227040;19;20370;-78
2022/06/22 06:47:15;;;;;;;2.22;1.50;;;24.10;43.80;;;22.89;46.86;100916.50;12209984;19;20039;-77
2022/06/22 06:51:20;;;;;;;1.65;1.17;;;24.40;44.20;;;23.17;46.55;100925.16;12208818;19;20405;-77
2022/06/22 06:55:44;;;;;;;1.40;1.30;;;24.60;43.80;;;23.23;46.48;100891.69;12198017;19;20074;-78
2022/06/22 06:59:51;;;;;;;3.78;1.70;;;24.80;43.90;;;23.41;46.58;100914.56;12222893;19;20040;-78
2022/06/22 07:03:59;;;;;;;1.35;1.00;;;25.20;43.80;;;23.57;45.98;100896.88;12221217;19;20433;-79
2022/06/22 07:08:06;;;;;;;3.85;1.52;;;25.20;43.00;;;23.77;45.94;100889.44;12222168;19;20037;-78
2022/06/22 07:12:33;;;;;;;1.27;1.17;;;25.40;42.90;;;24.00;45.88;100879.75;12223859;19;20010;-78
2022/06/22 07:16:36;;;;;;;1.63;1.20;;;25.60;42.50;;;23.97;45.27;100849.91;12225169;19;20034;-78
2022/06/22 07:20:42;;;;;;;3.17;1.13;;;25.80;41.20;;;24.27;45.03;100891.88;12224981;19;20053;-78
2022/06/22 07:24:57;;;;;;;1.20;1.10;;;26.20;40.40;;;24.55;44.37;100918.22;12228117;19;20688;-79
2022/06/22 07:29:29;;;;;;;0.85;0.85;;;26.10;39.80;;;24.71;43.98;100901.31;12220708;19;20021;-77
2022/06/22 07:33:47;;;;;;;1.42;0.93;;;26.20;40.00;;;25.04;43.98;100926.03;12224195;19;20081;-78
2022/06/22 07:38:40;;;;;;;2.05;0.90;;;26.50;39.70;;;25.22;42.96;100919.63;12223600;19;20089;-78
2022/06/22 07:42:51;;;;;;;2.95;0.90;;;26.60;38.40;;;25.04;42.15;100872.59;12227051;19;20070;-78
2022/06/22 07:47:11;;;;;;;1.88;0.90;;;26.70;37.40;;;25.35;42.13;100918.03;12225098;19;20021;-77
2022/06/22 07:51:26;;;;;;;3.10;0.90;;;26.90;37.20;;;25.39;41.33;100908.66;12223026;19;20606;-80
2022/06/22 07:55:49;;;;;;;0.98;0.75;;;27.00;36.90;;;25.66;41.06;100919.00;12217783;19;20029;-79
2022/06/22 07:59:57;;;;;;;3.38;0.80;;;27.10;36.80;;;25.35;41.02;100848.50;12217886;19;20099;-79
2022/06/22 08:04:29;;;;;;;4.47;1.00;;;27.30;36.80;;;25.87;40.95;100923.72;12215820;19;20504;-79
2022/06/22 08:08:45;;;;;;;2.05;0.85;;;27.40;37.20;;;25.97;40.59;100919.78;12213906;19;20081;-79
2022/06/22 08:13:14;;;;;;;1.10;0.90;;;27.50;36.20;;;26.10;40.67;100916.47;12217275;19;20011;-79
2022/06/22 08:17:31;;;;;;;0.85;0.80;;;27.60;36.20;;;26.24;40.26;100906.81;12217141;19;20027;-79
2022/06/22 08:21:46;;;;;;;2.78;0.90;;;27.60;36.50;;;26.28;40.11;100892.06;12215999;19;20019;-78
2022/06/22 08:25:50;;;;;;;1.73;0.88;;;27.80;36.50;;;26.36;40.14;100889.28;12214316;19;20099;-79
2022/06/22 08:29:54;;;;;;;0.70;0.70;;;27.90;36.40;;;26.53;40.02;100883.78;12217269;19;20011;-78
2022/06/22 08:34:03;;;;;;;2.15;1.52;;;28.00;36.50;;;26.62;39.40;100879.97;12216165;19;20053;-78
2022/06/22 08:38:17;;;;;;;1.95;1.05;;;28.20;35.90;;;26.64;39.03;100864.53;12215808;19;20077;-78
2022/06/22 08:42:53;;;;;;;1.55;1.05;;;28.30;35.70;;;26.84;39.21;100887.06;12216953;19;20025;-78
2022/06/22 08:47:30;;;;;;;1.60;0.80;;;28.30;35.70;;;26.88;39.07;100888.34;12215639;19;20018;-78
2022/06/22 08:52:12;;;;;;;0.90;0.85;;;28.40;35.60;;;26.91;39.32;100871.06;12216652;19;20010;-78
2022/06/22 08:57:01;;;;;;;1.73;0.90;;;28.50;35.70;;;27.13;38.75;100875.44;12213684;19;20015;-79
2022/06/22 09:02:00;;;;;;;3.20;0.90;;;28.60;35.30;;;27.16;38.70;100884.94;12212877;19;20018;-79
2022/06/22 09:06:38;;;;;;;2.40;0.85;;;28.60;35.00;;;27.07;38.47;100881.56;12208946;19;20010;-79
2022/06/22 09:11:20;;;;;;;1.10;0.95;;;28.60;34.50;;;27.12;38.11;100867.59;12216079;19;20022;-79
2022/06/22 09:16:08;;;;;;;1.15;1.00;;;28.70;35.00;;;27.23;38.49;100872.47;12214923;19;20662;-78
2022/06/22 09:20:47;;;;;;;1.00;0.82;;;28.70;34.60;;;27.31;37.70;100874.22;12210163;19;20130;-79
2022/06/22 09:25:30;;;;;;;1.67;0.85;;;28.80;34.50;;;27.44;37.82;100882.38;12215982;19;20023;-79
2022/06/22 09:29:48;;;;;;;1.27;0.68;;;28.90;34.30;;;27.47;37.59;100865.09;12215059;19;20006;-79
2022/06/22 09:34:24;;;;;;;3.20;0.75;;;29.00;34.50;;;27.66;36.84;100879.69;12217834;19;20174;-79
2022/06/22 09:38:53;;;;;;;;;;;29.00;34.50;;;27.86;38.26;100875.34;12217485;19;20018;-78
2022/06/22 09:43:12;;;;;;;0.70;0.70;;;29.20;35.80;;;27.84;37.10;100872.03;12220002;19;19915;-80
2022/06/22 09:47:55;;;;;;;0.85;0.60;;;29.30;34.10;;;27.98;36.83;100870.28;12216980;19;20030;-79
2022/06/22 09:52:08;;;;;;;2.22;0.98;;;29.40;33.70;;;27.88;36.51;100869.78;12220773;19;20018;-79
2022/06/22 09:56:27;;;;;;;1.38;0.90;;;29.50;33.10;;;27.83;35.83;100867.69;12221403;19;20025;-79
2022/06/22 10:01:14;;;;;;;2.08;1.05;;;29.50;33.00;;;27.79;36.32;100869.91;12225912;19;20018;-80
2022/06/22 10:05:37;;;;;;;0.70;0.70;;;29.40;32.90;;;27.98;35.81;100868.41;12229938;19;20018;-79
2022/06/22 10:10:06;;;;;;;2.40;0.90;;;29.40;33.30;;;28.18;35.88;100879.28;12230931;19;20007;-78
2022/06/22 10:14:18;;;;;;;1.42;0.80;;;29.50;33.70;;;28.33;35.44;100876.50;12229538;19;20015;-78
2022/06/22 10:18:58;;;;;;;2.45;1.08;;;29.70;33.00;;;28.48;35.67;100873.69;12228783;19;20011;-79
2022/06/22 10:24:03;;;;;;;2.42;1.20;;;29.80;33.20;;;28.70;35.63;100885.16;12230050;19;20370;-79
2022/06/22 10:29:03;;;;;;;1.88;0.77;;;30.00;33.40;;;28.88;35.24;100881.94;12225349;19;20014;-78
2022/06/22 10:33:17;;;;;;;3.83;1.05;;;30.20;32.80;;;28.98;34.56;100878.88;12236405;19;20043;-79
2022/06/22 10:37:47;;;;;;;0.63;0.63;;;30.30;32.40;;;28.97;34.18;100874.53;12240843;19;20018;-78
2022/06/22 10:46:52;;;;;;;2.08;0.82;;;30.40;32.10;;;29.11;34.46;100892.38;12239972;19;20031;-79
2022/06/22 10:51:31;;;;;;;3.17;0.85;;;30.50;32.30;;;29.19;33.89;100878.78;12236078;19;20018;-78
2022/06/22 10:55:57;;;;;;;1.30;0.90;;;30.60;32.10;;;29.24;33.75;100867.38;12243880;19;20342;-79
2022/06/22 11:00:38;;;;;;;1.48;0.82;;;30.60;31.50;;;29.29;33.60;100870.28;12236527;19;20351;-79
2022/06/22 11:05:06;;;;;;;2.15;0.80;;;30.60;31.40;;;29.28;32.64;100863.25;12242973;19;20018;-78
2022/06/22 11:09:32;;;;;;;1.73;1.00;;;30.70;31.40;;;29.27;33.21;100864.28;12239243;19;20037;-78
2022/06/22 11:13:55;;;;;;;2.25;1.20;;;30.70;31.60;;;29.37;33.08;100856.63;12244300;19;20125;-78
2022/06/22 11:18:29;;;;;;;3.80;0.95;;;30.80;31.50;;;29.50;32.96;100871.97;12239339;19;20018;-78
2022/06/22 11:22:45;;;;;;;1.17;0.93;;;30.80;31.50;;;29.41;32.42;100857.91;12243089;19;20014;-79
2022/06/22 11:32:41;;;;;;;1.40;0.90;;;30.90;30.90;;;29.61;32.22;100865.97;12239483;19;20054;-78
2022/06/22 11:36:59;;;;;;;2.03;0.90;;;31.20;31.30;;;29.64;32.20;100854.00;12234244;19;20010;-77
2022/06/22 11:41:19;;;;;;;2.22;1.15;;;31.10;30.90;;;29.83;31.91;100865.78;12223830;19;20024;-79
2022/06/22 11:45:51;;;;;;;2.78;1.08;;;31.10;31.00;;;29.95;32.03;100858.75;12232860;19;20023;-79
2022/06/22 11:50:46;;;;;;;1.95;1.02;;;31.30;30.90;;;30.03;32.04;100846.91;12236006;19;20014;-81
2022/06/22 11:55:33;;;;;;;1.25;0.80;;;31.30;31.20;;;30.16;31.63;100854.97;12236751;19;20049;-81
2022/06/22 12:00:25;;;;;;;1.45;1.00;;;31.40;30.70;;;30.16;31.45;100828.88;12240887;19;20491;-81
2022/06/22 12:05:01;;;;;;;1.30;0.90;;;31.60;30.80;;;30.31;31.47;100830.50;12237667;19;20011;-83
2022/06/22 12:09:30;;;;;;;1.40;0.70;;;31.60;30.40;;;30.45;31.21;100828.59;12233582;19;20089;-80
2022/06/22 12:18:51;;;;;;;2.10;1.10;;;31.90;30.90;;;30.65;30.40;100835.56;12220092;19;20026;-81
2022/06/22 12:23:15;;;;;;;1.08;0.93;;;32.00;30.00;;;30.63;30.31;100839.50;12224514;19;20019;-81
2022/06/22 12:27:29;;;;;;;1.90;0.73;;;32.00;30.00;;;30.60;30.33;100824.59;12223350;19;20017;-81
2022/06/22 12:31:47;;;;;;;1.20;0.98;;;32.10;29.70;;;30.46;29.92;100806.84;12224360;19;20044;-81
2022/06/22 12:35:59;;;;;;;2.45;0.80;;;32.00;29.70;;;30.59;30.16;100814.00;12227809;19;20015;-81
2022/06/22 12:40:22;;;;;;;0.95;0.80;;;32.00;29.70;;;30.65;29.79;100814.00;12228777;19;20096;-81
2022/06/22 12:44:46;;;;;;;1.10;0.85;;;32.00;29.80;;;30.69;30.19;100806.28;12228754;19;20025;-81
2022/06/22 12:49:46;;;;;;;2.92;0.82;;;32.00;29.80;;;30.75;29.66;100812.69;12228754;19;20015;-81
2022/06/22 12:54:08;;;;;;;1.48;1.00;;;32.10;29.50;;;30.60;29.41;100797.63;12224911;19;20119;-84
2022/06/22 12:58:36;;;;;;;1.42;0.90;;;32.10;29.40;;;30.58;29.34;100802.41;12226490;19;20339;-82
2022/06/22 13:02:42;;;;;;;0.60;0.60;;;32.00;29.60;;;30.53;29.65;100780.66;12230995;19;20022;-82
2022/06/22 13:06:54;;;;;;;0.90;0.80;;;32.00;29.50;;;30.61;29.10;100774.19;12226794;19;20019;-82
2022/06/22 13:11:12;;;;;;;1.17;0.80;;;32.10;29.40;;;30.69;28.99;100789.28;12226341;19;20016;-82
2022/06/22 13:15:40;;;;;;;4.43;0.90;;;32.10;29.20;;;30.73;28.96;100788.66;12225989;19;20050;-82
2022/06/22 13:20:11;;;;;;;1.25;0.90;;;32.10;29.10;;;30.74;28.75;100787.59;12227050;19;20086;-83
2022/06/22 13:24:37;;;;;;;0.60;0.60;;;32.10;29.60;;;30.74;28.33;100784.91;12227629;19;20014;-81
2022/06/22 13:28:49;;;;;;;2.53;0.80;;;32.10;28.90;;;30.65;28.57;100761.94;12224530;19;20087;-81
2022/06/22 13:33:25;;;;;;;0.80;0.80;;;32.10;28.90;;;30.84;28.38;100779.09;12225937;19;20082;-81
2022/06/22 13:38:12;;;;;;;0.93;0.70;;;32.10;28.90;;;30.96;28.18;100779.19;12224862;19;20035;-81
2022/06/22 13:42:22;;;;;;;1.85;0.70;;;32.20;29.20;;;30.96;28.02;100771.94;12221907;19;20114;-81
2022/06/22 13:47:09;;;;;;;1.73;0.75;;;32.30;28.80;;;30.98;28.24;100777.13;12227618;19;20007;-81
2022/06/22 13:51:29;;;;;;;0.85;0.63;;;32.30;29.20;;;30.91;27.75;100763.66;12223549;19;20767;-82
2022/06/22 13:56:01;;;;;;;0.50;0.50;;;32.30;28.70;;;30.95;27.57;100767.59;12230195;19;20007;-81
2022/06/22 14:00:21;;;;;;;1.45;0.60;;;32.30;28.80;;;30.95;27.50;100780.25;12226197;19;20026;-81
2022/06/22 14:04:33;;;;;;;1.33;1.02;;;32.30;28.10;;;30.76;27.25;100750.47;12233483;19;20066;-81
2022/06/22 14:09:18;;;;;;;1.40;0.73;;;32.30;28.40;;;30.94;27.29;100765.91;12243019;19;20015;-81
2022/06/22 14:13:28;;;;;;;0.73;0.60;;;32.20;28.50;;;31.00;27.36;100761.50;12248504;19;20353;-81
2022/06/22 14:17:51;;;;;;;0.60;0.50;;;32.30;28.40;;;31.09;27.16;100762.91;12246662;19;20022;-81
2022/06/22 14:22:05;;;;;;;0.65;0.60;;;32.30;28.10;;;31.08;26.90;100745.06;12245332;19;20045;-82
2022/06/22 14:26:25;;;;;;;0.60;0.60;;;32.40;28.10;;;31.00;27.20;100743.50;12241104;19;20032;-83
2022/06/22 14:30:48;;;;;;;2.28;0.90;;;32.30;28.20;;;30.92;26.46;100741.06;12241391;19;20007;-81
2022/06/22 14:35:29;;;;;;;0.80;0.80;;;32.30;27.80;;;30.86;26.85;100737.34;12245722;19;20015;-81
2022/06/22 14:39:40;;;;;;;1.40;0.77;;;32.30;28.10;;;30.88;26.60;100733.63;12243225;19;20049;-82
2022/06/22 14:44:11;;;;;;;0.90;0.77;;;32.20;27.80;;;30.84;26.53;100733.22;12246657;19;20014;-82
2022/06/22 14:48:39;;;;;;;2.25;0.50;;;32.20;27.90;;;30.93;26.79;100731.09;12243439;19;20477;-82
2022/06/22 14:52:58;;;;;;;4.40;0.65;;;32.20;28.20;;;30.90;26.72;100713.47;12243149;19;20974;-82
2022/06/22 14:57:18;;;;;;;0.63;0.63;;;32.30;28.60;;;31.08;25.92;100726.19;12242463;19;20014;-81
2022/06/22 15:01:43;;;;;;;0.50;0.50;;;32.30;27.60;;;31.15;25.98;100705.38;12239180;19;20039;-81
2022/06/22 15:05:57;;;;;;;0.85;0.65;;;32.40;28.10;;;31.23;26.09;100710.50;12242256;19;20697;-82
2022/06/22 15:10:14;;;;;;;1.75;0.60;;;32.50;27.50;;;31.19;25.49;100703.91;12240731;19;20003;-81
2022/06/22 15:14:35;;;;;;;0.63;0.60;;;32.50;27.40;;;31.27;25.68;100716.25;12243222;19;20018;-81
2022/06/22 15:19:04;;;;;;;1.15;0.68;;;32.50;27.30;;;31.20;25.65;100686.66;12240637;19;20423;-80
2022/06/22 15:23:31;;;;;;;1.30;0.68;;;32.50;27.40;;;31.38;25.25;100709.34;12241070;19;20018;-81
2022/06/22 15:27:48;;;;;;;0.73;0.57;;;32.60;27.30;;;31.30;25.46;100683.47;12242639;19;20014;-81
2022/06/22 15:32:13;;;;;;;1.23;0.50;;;32.60;27.20;;;31.38;25.49;100701.25;12241170;19;20021;-81
2022/06/22 15:36:34;;;;;;;2.92;0.68;;;33.00;27.40;;;31.39;25.38;100702.91;12241989;19;20011;-81
2022/06/22 15:40:41;;;;;;;2.05;0.45;;;32.70;27.10;;;31.36;25.00;100690.66;12231192;19;20014;-80
2022/06/22 15:45:15;;;;;;;2.75;0.63;;;32.70;27.20;;;31.38;24.99;100679.66;12237742;19;20016;-81
2022/06/22 15:49:50;;;;;;;4.13;0.80;;;32.70;27.20;;;31.46;24.68;100690.16;12238310;19;20057;-81
2022/06/22 15:54:07;;;;;;;1.00;0.45;;;32.70;27.00;;;31.46;24.98;100687.44;12241279;19;20014;-79
2022/06/22 15:58:44;;;;;;;0.95;0.73;;;32.70;27.10;;;31.44;24.81;100687.69;12238357;19;20350;-81
2022/06/22 16:02:57;;;;;;;1.65;0.57;;;32.70;26.80;;;31.33;24.96;100674.09;12223730;19;20022;-81
2022/06/22 16:07:08;;;;;;;0.98;0.55;;;32.70;26.90;;;31.15;24.69;100661.38;12240553;19;20011;-81
2022/06/22 16:16:32;;;;;;;0.90;0.55;;;32.50;27.00;;;31.07;24.46;100659.78;12243169;19;20018;-84
2022/06/22 16:20:46;;;;;;;1.40;0.60;;;32.50;27.00;;;31.18;25.08;100696.00;12242023;19;20003;-81
2022/06/22 16:24:56;;;;;;;0.87;0.80;;;32.50;27.20;;;31.14;25.02;100692.13;12243922;19;20422;-81
2022/06/22 16:29:15;;;;;;;0.70;0.70;;;32.50;27.40;;;31.13;25.20;100698.53;12235683;19;20136;-81
2022/06/22 16:34:11;;;;;;;0.90;0.70;;;32.50;27.80;;;31.13;25.09;100693.97;12241886;19;20018;-81
2022/06/22 16:38:46;;;;;;;1.73;1.30;;;32.40;27.50;;;31.15;25.11;100685.66;12238645;19;20053;-81
2022/06/22 16:43:18;;;;;;;0.50;0.50;;;32.40;27.40;;;31.08;25.19;100685.72;12244939;19;20090;-80
2022/06/22 16:47:21;;;;;;;1.50;0.80;;;32.40;27.50;;;30.98;25.07;100675.44;12240456;19;20018;-80
2022/06/22 16:52:25;;;;;;;0.60;0.50;;;32.40;27.70;;;30.96;25.29;100692.88;12295241;19;20368;-79
2022/06/22 16:57:03;;;;;;;1.00;0.80;;;32.30;27.90;;;30.86;25.59;100685.28;12298572;19;20014;-80
2022/06/22 17:01:17;;;;;;;1.13;0.90;;;32.20;27.80;;;30.91;25.27;100693.53;12293855;19;20423;-80
2022/06/22 17:05:44;;;;;;;0.82;0.70;;;32.20;28.00;;;30.85;25.52;100700.63;12298536;19;20018;-80
2022/06/22 17:10:03;;;;;;;2.83;0.73;;;32.10;27.90;;;30.74;25.58;100695.09;12296101;19;20006;-80
2022/06/22 17:14:33;;;;;;;1.05;0.85;;;32.10;27.90;;;30.53;25.62;100678.22;12296496;19;20031;-84
2022/06/22 17:19:13;;;;;;;1.55;0.73;;;32.00;28.10;;;30.49;25.57;100693.19;12296353;19;20010;-85
2022/06/22 17:23:34;;;;;;;0.50;0.50;;;31.90;28.00;;;30.40;26.14;100698.00;12292435;19;20015;-80
2022/06/22 17:27:52;;;;;;;0.57;0.47;;;31.80;28.30;;;30.27;25.61;100689.97;12291376;19;20042;-81
2022/06/22 17:31:57;;;;;;;2.97;0.65;;;31.70;28.00;;;30.25;25.95;100702.88;12275978;19;20716;-80
2022/06/22 17:37:17;;;;;;;0.90;0.70;;;31.60;28.40;;;30.22;26.03;100714.03;12278216;19;20041;-80
2022/06/22 17:42:11;;;;;;;0.60;0.60;;;31.60;28.30;;;30.10;25.85;100715.75;12273796;19;20026;-80
2022/06/22 17:46:16;;;;;;;1.35;0.50;;;31.50;28.10;;;29.91;25.78;100704.81;12280147;19;20464;-80
2022/06/22 17:50:45;;;;;;;1.30;0.60;;;31.40;27.90;;;29.86;26.06;100725.34;12279255;19;20041;-80
2022/06/22 17:54:56;;;;;;;1.88;0.70;;;31.30;28.30;;;29.69;26.42;100703.47;12280314;19;20105;-80
2022/06/22 17:59:06;;;;;;;0.85;0.85;;;31.20;28.40;;;29.52;25.73;100685.03;12280252;19;20011;-80
2022/06/22 18:03:36;;;;;;;1.42;0.80;;;31.10;28.10;;;29.60;25.71;100712.75;12232843;19;20022;-80
2022/06/22 18:07:41;;;;;;;3.38;1.00;;;31.10;28.20;;;29.52;26.19;100713.81;12225317;19;20046;-80
2022/06/22 18:11:50;;;;;;;0.73;0.68;;;31.00;28.40;;;29.46;26.40;100710.09;12229804;19;20020;-80
2022/06/22 18:15:51;;;;;;;1.17;0.70;;;31.00;28.60;;;29.41;26.49;100712.59;12231913;19;20021;-80
2022/06/22 18:20:16;;;;;;;1.33;0.77;;;30.90;28.90;;;29.44;27.02;100722.13;12231957;19;20015;-79
2022/06/22 18:24:27;;;;;;;0.82;0.60;;;31.10;29.00;;;29.34;27.03;100712.59;12230664;19;20018;-80
2022/06/22 18:28:41;;;;;;;0.55;0.55;;;30.90;29.30;;;29.39;27.17;100730.81;12222615;19;20018;-80